sensor_id;sensor_type;location;lat;lon;timestamp;pressure;altitude;pressure_sealevel;temperature;humidity
68986;BME280;56035;37.534;-122.308;2022-11-11T00:00:02;102057.22;;;12.22;56.75
68986;BME280;56035;37.534;-122.308;2022-11-11T00:02:28;102060.16;;;12.27;55.75
68986;BME280;56035;37.534;-122.308;2022-11-11T00:04:54;102058.47;;;12.26;56.12
68986;BME280;56035;37.534;-122.308;2022-11-11T00:07:20;102060.88;;;12.09;57.97
68986;BME280;56035;37.534;-122.308;2022-11-11T00:09:46;102052.84;;;12.08;58.24
68986;BME280;56035;37.534;-122.308;2022-11-11T00:12:12;102060.69;;;12.11;56.78
68986;BME280;56035;37.534;-122.308;2022-11-11T00:14:39;102052.19;;;12.06;56.96
68986;BME280;56035;37.534;-122.308;2022-11-11T00:17:05;102047.38;;;11.94;59.23
68986;BME280;56035;37.534;-122.308;2022-11-11T00:19:49;102048.69;;;11.85;59.91
68986;BME280;56035;37.534;-122.308;2022-11-11T00:22:33;102056.13;;;11.78;61.12
68986;BME280;56035;37.534;-122.308;2022-11-11T00:25:18;102049.38;;;11.74;59.33
68986;BME280;56035;37.534;-122.308;2022-11-11T00:27:45;102049.16;;;11.69;59.79
68986;BME280;56035;37.534;-122.308;2022-11-11T00:30:11;102056.19;;;11.65;60.40
68986;BME280;56035;37.534;-122.308;2022-11-11T00:32:37;102057.69;;;11.61;58.40
68986;BME280;56035;37.534;-122.308;2022-11-11T00:35:03;102062.38;;;11.54;58.68
68986;BME280;56035;37.534;-122.308;2022-11-11T00:37:48;102055.41;;;11.44;59.07
68986;BME280;56035;37.534;-122.308;2022-11-11T00:40:15;102053.09;;;11.35;58.26
68986;BME280;56035;37.534;-122.308;2022-11-11T00:42:41;102051.00;;;11.17;62.01
68986;BME280;56035;37.534;-122.308;2022-11-11T00:45:08;102045.28;;;10.98;62.56
68986;BME280;56035;37.534;-122.308;2022-11-11T00:47:34;102049.78;;;10.80;61.49
68986;BME280;56035;37.534;-122.308;2022-11-11T00:50:25;102044.25;;;10.66;64.06
68986;BME280;56035;37.534;-122.308;2022-11-11T00:53:16;102042.75;;;10.50;65.17
68986;BME280;56035;37.534;-122.308;2022-11-11T00:55:42;102044.19;;;10.33;65.95
68986;BME280;56035;37.534;-122.308;2022-11-11T00:58:09;102045.63;;;10.16;66.92
68986;BME280;56035;37.534;-122.308;2022-11-11T01:00:35;102040.31;;;10.01;68.17
68986;BME280;56035;37.534;-122.308;2022-11-11T01:03:01;102034.28;;;9.84;68.77
68986;BME280;56035;37.534;-122.308;2022-11-11T01:05:27;102043.38;;;9.71;69.66
68986;BME280;56035;37.534;-122.308;2022-11-11T01:07:53;102043.50;;;9.56;69.92
68986;BME280;56035;37.534;-122.308;2022-11-11T01:10:21;102048.28;;;9.41;70.59
68986;BME280;56035;37.534;-122.308;2022-11-11T01:13:17;102056.22;;;9.23;71.22
68986;BME280;56035;37.534;-122.308;2022-11-11T01:15:47;102059.75;;;9.10;72.48
68986;BME280;56035;37.534;-122.308;2022-11-11T01:18:16;102055.19;;;8.96;73.11
68986;BME280;56035;37.534;-122.308;2022-11-11T01:20:42;102056.59;;;8.85;74.17
68986;BME280;56035;37.534;-122.308;2022-11-11T01:23:10;102054.38;;;8.74;75.17
68986;BME280;56035;37.534;-122.308;2022-11-11T01:25:38;102058.31;;;8.64;75.32
68986;BME280;56035;37.534;-122.308;2022-11-11T01:28:05;102060.34;;;8.56;75.34
68986;BME280;56035;37.534;-122.308;2022-11-11T01:30:33;102056.41;;;8.43;76.19
68986;BME280;56035;37.534;-122.308;2022-11-11T01:33:00;102059.50;;;8.34;77.01
68986;BME280;56035;37.534;-122.308;2022-11-11T01:35:27;102053.25;;;8.25;77.89
68986;BME280;56035;37.534;-122.308;2022-11-11T01:37:53;102060.75;;;8.16;78.15
68986;BME280;56035;37.534;-122.308;2022-11-11T01:40:19;102060.91;;;8.08;78.53
68986;BME280;56035;37.534;-122.308;2022-11-11T01:42:53;102065.84;;;7.98;79.52
68986;BME280;56035;37.534;-122.308;2022-11-11T01:46:03;102064.44;;;7.87;80.73
68986;BME280;56035;37.534;-122.308;2022-11-11T01:48:48;102065.78;;;7.77;83.49
68986;BME280;56035;37.534;-122.308;2022-11-11T01:54:20;102066.28;;;7.65;85.83
68986;BME280;56035;37.534;-122.308;2022-11-11T01:56:50;102067.06;;;7.59;85.96
68986;BME280;56035;37.534;-122.308;2022-11-11T01:59:19;102063.38;;;7.52;86.06
68986;BME280;56035;37.534;-122.308;2022-11-11T02:01:47;102058.81;;;7.44;86.91
68986;BME280;56035;37.534;-122.308;2022-11-11T02:04:13;102056.00;;;7.38;87.96
68986;BME280;56035;37.534;-122.308;2022-11-11T02:07:01;102051.25;;;7.32;88.60
68986;BME280;56035;37.534;-122.308;2022-11-11T02:09:29;102055.44;;;7.27;90.16
68986;BME280;56035;37.534;-122.308;2022-11-11T02:11:57;102063.56;;;7.21;90.41
68986;BME280;56035;37.534;-122.308;2022-11-11T02:14:50;102052.50;;;7.14;92.10
68986;BME280;56035;37.534;-122.308;2022-11-11T02:17:17;102055.13;;;7.08;92.96
68986;BME280;56035;37.534;-122.308;2022-11-11T02:20:01;102040.50;;;7.00;93.71
68986;BME280;56035;37.534;-122.308;2022-11-11T02:22:50;102047.56;;;6.95;93.36
68986;BME280;56035;37.534;-122.308;2022-11-11T02:25:21;102046.41;;;6.89;95.68
68986;BME280;56035;37.534;-122.308;2022-11-11T02:27:50;102044.25;;;6.85;95.37
68986;BME280;56035;37.534;-122.308;2022-11-11T02:30:18;102040.56;;;6.77;95.49
68986;BME280;56035;37.534;-122.308;2022-11-11T02:32:49;102036.84;;;6.70;96.28
68986;BME280;56035;37.534;-122.308;2022-11-11T02:35:40;102044.09;;;6.63;96.09
68986;BME280;56035;37.534;-122.308;2022-11-11T02:38:05;102049.09;;;6.60;96.66
68986;BME280;56035;37.534;-122.308;2022-11-11T02:40:43;102039.75;;;6.54;97.28
68986;BME280;56035;37.534;-122.308;2022-11-11T02:43:32;102042.84;;;6.51;98.05
68986;BME280;56035;37.534;-122.308;2022-11-11T02:45:59;102046.97;;;6.47;98.34
68986;BME280;56035;37.534;-122.308;2022-11-11T02:48:26;102042.06;;;6.42;98.83
68986;BME280;56035;37.534;-122.308;2022-11-11T02:50:52;102039.69;;;6.39;99.60
68986;BME280;56035;37.534;-122.308;2022-11-11T02:53:19;102038.16;;;6.37;100.00
68986;BME280;56035;37.534;-122.308;2022-11-11T02:55:45;102044.00;;;6.33;100.00
68986;BME280;56035;37.534;-122.308;2022-11-11T02:58:12;102046.09;;;6.31;100.00
68986;BME280;56035;37.534;-122.308;2022-11-11T03:00:39;102038.88;;;6.30;100.00
68986;BME280;56035;37.534;-122.308;2022-11-11T03:03:06;102045.41;;;6.29;100.00
68986;BME280;56035;37.534;-122.308;2022-11-11T03:05:32;102042.84;;;6.28;100.00
68986;BME280;56035;37.534;-122.308;2022-11-11T03:07:58;102044.91;;;6.26;100.00
68986;BME280;56035;37.534;-122.308;2022-11-11T03:10:24;102044.91;;;6.26;100.00
68986;BME280;56035;37.534;-122.308;2022-11-11T03:12:50;102048.50;;;6.26;100.00
68986;BME280;56035;37.534;-122.308;2022-11-11T03:15:16;102039.59;;;6.24;100.00
68986;BME280;56035;37.534;-122.308;2022-11-11T03:17:42;102048.88;;;6.23;100.00
68986;BME280;56035;37.534;-122.308;2022-11-11T03:20:14;102042.06;;;6.19;100.00
68986;BME280;56035;37.534;-122.308;2022-11-11T03:23:07;102046.19;;;6.15;100.00
68986;BME280;56035;37.534;-122.308;2022-11-11T03:25:37;102049.28;;;6.12;100.00
68986;BME280;56035;37.534;-122.308;2022-11-11T03:28:12;102048.81;;;6.08;100.00
68986;BME280;56035;37.534;-122.308;2022-11-11T03:30:41;102055.13;;;6.09;100.00
68986;BME280;56035;37.534;-122.308;2022-11-11T03:33:07;102055.50;;;6.06;100.00
68986;BME280;56035;37.534;-122.308;2022-11-11T03:35:34;102060.13;;;6.05;100.00
68986;BME280;56035;37.534;-122.308;2022-11-11T03:38:01;102052.91;;;6.04;100.00
68986;BME280;56035;37.534;-122.308;2022-11-11T03:40:46;102059.97;;;5.99;100.00
68986;BME280;56035;37.534;-122.308;2022-11-11T03:43:15;102062.03;;;5.97;100.00
68986;BME280;56035;37.534;-122.308;2022-11-11T03:45:42;102056.06;;;5.93;100.00
68986;BME280;56035;37.534;-122.308;2022-11-11T03:48:09;102063.44;;;5.93;100.00
68986;BME280;56035;37.534;-122.308;2022-11-11T03:50:36;102058.81;;;5.93;100.00
68986;BME280;56035;37.534;-122.308;2022-11-11T03:53:02;102059.34;;;5.89;100.00
68986;BME280;56035;37.534;-122.308;2022-11-11T03:55:29;102063.06;;;5.87;100.00
68986;BME280;56035;37.534;-122.308;2022-11-11T03:57:55;102055.59;;;5.81;100.00
68986;BME280;56035;37.534;-122.308;2022-11-11T04:00:23;102061.75;;;5.83;100.00
68986;BME280;56035;37.534;-122.308;2022-11-11T04:02:50;102066.38;;;5.83;100.00
68986;BME280;56035;37.534;-122.308;2022-11-11T04:05:35;102074.44;;;5.76;100.00
68986;BME280;56035;37.534;-122.308;2022-11-11T04:08:20;102075.44;;;5.75;100.00
68986;BME280;56035;37.534;-122.308;2022-11-11T04:11:10;102077.69;;;5.72;100.00
68986;BME280;56035;37.534;-122.308;2022-11-11T04:13:42;102077.53;;;5.65;100.00
68986;BME280;56035;37.534;-122.308;2022-11-11T04:16:28;102079.63;;;5.63;100.00
68986;BME280;56035;37.534;-122.308;2022-11-11T04:18:54;102076.38;;;5.59;100.00
68986;BME280;56035;37.534;-122.308;2022-11-11T04:21:38;102079.63;;;5.63;100.00
68986;BME280;56035;37.534;-122.308;2022-11-11T04:24:11;102081.50;;;5.62;100.00
68986;BME280;56035;37.534;-122.308;2022-11-11T04:26:58;102076.19;;;5.61;100.00
68986;BME280;56035;37.534;-122.308;2022-11-11T04:29:24;102079.97;;;5.60;100.00
68986;BME280;56035;37.534;-122.308;2022-11-11T04:31:55;102078.25;;;5.59;100.00
68986;BME280;56035;37.534;-122.308;2022-11-11T04:34:40;102079.63;;;5.55;100.00
68986;BME280;56035;37.534;-122.308;2022-11-11T04:37:07;102087.34;;;5.51;100.00
68986;BME280;56035;37.534;-122.308;2022-11-11T04:39:33;102083.91;;;5.49;100.00
68986;BME280;56035;37.534;-122.308;2022-11-11T04:42:17;102072.69;;;5.44;100.00
68986;BME280;56035;37.534;-122.308;2022-11-11T04:44:43;102077.66;;;5.40;100.00
68986;BME280;56035;37.534;-122.308;2022-11-11T04:47:28;102073.56;;;5.36;100.00
68986;BME280;56035;37.534;-122.308;2022-11-11T04:49:54;102079.69;;;5.38;100.00
68986;BME280;56035;37.534;-122.308;2022-11-11T04:52:20;102077.31;;;5.44;100.00
68986;BME280;56035;37.534;-122.308;2022-11-11T04:54:55;102081.03;;;5.43;100.00
68986;BME280;56035;37.534;-122.308;2022-11-11T04:57:46;102081.91;;;5.43;100.00
68986;BME280;56035;37.534;-122.308;2022-11-11T05:00:16;102082.13;;;5.33;100.00
68986;BME280;56035;37.534;-122.308;2022-11-11T05:02:43;102082.47;;;5.30;100.00
68986;BME280;56035;37.534;-122.308;2022-11-11T05:05:28;102087.59;;;5.25;100.00
68986;BME280;56035;37.534;-122.308;2022-11-11T05:08:15;102080.78;;;5.21;100.00
68986;BME280;56035;37.534;-122.308;2022-11-11T05:11:00;102079.59;;;5.15;100.00
68986;BME280;56035;37.534;-122.308;2022-11-11T05:13:26;102073.81;;;5.10;100.00
68986;BME280;56035;37.534;-122.308;2022-11-11T05:16:17;102085.25;;;5.06;100.00
68986;BME280;56035;37.534;-122.308;2022-11-11T05:19:03;102075.84;;;5.00;100.00
68986;BME280;56035;37.534;-122.308;2022-11-11T05:21:57;102076.38;;;4.96;100.00
68986;BME280;56035;37.534;-122.308;2022-11-11T05:24:26;102082.19;;;4.92;100.00
68986;BME280;56035;37.534;-122.308;2022-11-11T05:27:10;102085.44;;;4.88;100.00
68986;BME280;56035;37.534;-122.308;2022-11-11T05:29:36;102088.34;;;4.86;100.00
68986;BME280;56035;37.534;-122.308;2022-11-11T05:32:03;102090.72;;;4.89;100.00
68986;BME280;56035;37.534;-122.308;2022-11-11T05:34:30;102089.53;;;4.92;100.00
68986;BME280;56035;37.534;-122.308;2022-11-11T05:36:56;102086.63;;;4.93;100.00
68986;BME280;56035;37.534;-122.308;2022-11-11T05:39:22;102090.03;;;4.96;100.00
68986;BME280;56035;37.534;-122.308;2022-11-11T05:41:48;102083.88;;;4.93;100.00
68986;BME280;56035;37.534;-122.308;2022-11-11T05:44:14;102091.75;;;4.97;100.00
68986;BME280;56035;37.534;-122.308;2022-11-11T05:46:40;102087.66;;;5.01;100.00
68986;BME280;56035;37.534;-122.308;2022-11-11T05:49:06;102080.31;;;5.01;100.00
68986;BME280;56035;37.534;-122.308;2022-11-11T05:51:42;102091.91;;;5.03;100.00
68986;BME280;56035;37.534;-122.308;2022-11-11T05:54:09;102085.59;;;5.03;100.00
68986;BME280;56035;37.534;-122.308;2022-11-11T05:56:35;102086.44;;;5.03;100.00
68986;BME280;56035;37.534;-122.308;2022-11-11T05:59:01;102088.31;;;5.03;100.00
68986;BME280;56035;37.534;-122.308;2022-11-11T06:01:28;102091.41;;;5.00;100.00
68986;BME280;56035;37.534;-122.308;2022-11-11T06:03:54;102086.28;;;4.97;100.00
68986;BME280;56035;37.534;-122.308;2022-11-11T06:06:20;102093.47;;;4.98;100.00
68986;BME280;56035;37.534;-122.308;2022-11-11T06:08:46;102097.38;;;4.95;100.00
68986;BME280;56035;37.534;-122.308;2022-11-11T06:11:12;102085.63;;;4.95;100.00
68986;BME280;56035;37.534;-122.308;2022-11-11T06:13:38;102081.84;;;4.96;100.00
68986;BME280;56035;37.534;-122.308;2022-11-11T06:16:05;102081.16;;;4.93;100.00
68986;BME280;56035;37.534;-122.308;2022-11-11T06:18:31;102085.78;;;4.93;100.00
68986;BME280;56035;37.534;-122.308;2022-11-11T06:20:58;102088.50;;;4.93;100.00
68986;BME280;56035;37.534;-122.308;2022-11-11T06:23:26;102082.19;;;4.92;100.00
68986;BME280;56035;37.534;-122.308;2022-11-11T06:25:53;102086.63;;;4.93;100.00
68986;BME280;56035;37.534;-122.308;2022-11-11T06:28:39;102093.31;;;4.91;100.00
68986;BME280;56035;37.534;-122.308;2022-11-11T06:31:06;102091.06;;;4.86;100.00
68986;BME280;56035;37.534;-122.308;2022-11-11T06:33:33;102095.88;;;4.84;100.00
68986;BME280;56035;37.534;-122.308;2022-11-11T06:36:04;102099.09;;;4.80;100.00
68986;BME280;56035;37.534;-122.308;2022-11-11T06:38:30;102098.78;;;4.75;100.00
68986;BME280;56035;37.534;-122.308;2022-11-11T06:40:56;102094.66;;;4.70;100.00
68986;BME280;56035;37.534;-122.308;2022-11-11T06:43:23;102088.88;;;4.65;100.00
68986;BME280;56035;37.534;-122.308;2022-11-11T06:45:51;102087.66;;;4.60;100.00
68986;BME280;56035;37.534;-122.308;2022-11-11T06:48:17;102086.13;;;4.57;100.00
68986;BME280;56035;37.534;-122.308;2022-11-11T06:50:44;102092.81;;;4.55;100.00
68986;BME280;56035;37.534;-122.308;2022-11-11T06:53:12;102082.22;;;4.52;100.00
68986;BME280;56035;37.534;-122.308;2022-11-11T06:55:39;102091.94;;;4.46;100.00
68986;BME280;56035;37.534;-122.308;2022-11-11T06:58:06;102094.16;;;4.42;100.00
68986;BME280;56035;37.534;-122.308;2022-11-11T07:00:34;102089.03;;;4.39;100.00
68986;BME280;56035;37.534;-122.308;2022-11-11T07:03:02;102092.78;;;4.38;100.00
68986;BME280;56035;37.534;-122.308;2022-11-11T07:05:29;102081.34;;;4.35;100.00
68986;BME280;56035;37.534;-122.308;2022-11-11T07:07:55;102083.41;;;4.33;100.00
68986;BME280;56035;37.534;-122.308;2022-11-11T07:10:21;102088.34;;;4.29;100.00
68986;BME280;56035;37.534;-122.308;2022-11-11T07:12:47;102088.50;;;4.28;100.00
68986;BME280;56035;37.534;-122.308;2022-11-11T07:15:14;102090.56;;;4.26;100.00
68986;BME280;56035;37.534;-122.308;2022-11-11T07:17:40;102087.13;;;4.23;100.00
68986;BME280;56035;37.534;-122.308;2022-11-11T07:20:06;102091.03;;;4.21;100.00
68986;BME280;56035;37.534;-122.308;2022-11-11T07:22:35;102092.22;;;4.18;100.00
68986;BME280;56035;37.534;-122.308;2022-11-11T07:25:02;102087.97;;;4.16;100.00
68986;BME280;56035;37.534;-122.308;2022-11-11T07:27:28;102086.25;;;4.15;100.00
68986;BME280;56035;37.534;-122.308;2022-11-11T07:29:54;102080.97;;;4.13;100.00
68986;BME280;56035;37.534;-122.308;2022-11-11T07:32:20;102079.28;;;4.12;100.00
68986;BME280;56035;37.534;-122.308;2022-11-11T07:34:46;102083.19;;;4.10;100.00
68986;BME280;56035;37.534;-122.308;2022-11-11T07:37:14;102074.31;;;4.08;100.00
68986;BME280;56035;37.534;-122.308;2022-11-11T07:39:40;102084.38;;;4.07;100.00
68986;BME280;56035;37.534;-122.308;2022-11-11T07:42:06;102077.38;;;4.05;100.00
68986;BME280;56035;37.534;-122.308;2022-11-11T07:44:32;102073.78;;;4.04;100.00
68986;BME280;56035;37.534;-122.308;2022-11-11T07:46:58;102068.00;;;3.99;100.00
68986;BME280;56035;37.534;-122.308;2022-11-11T07:49:24;102072.59;;;3.98;100.00
68986;BME280;56035;37.534;-122.308;2022-11-11T07:51:50;102069.34;;;3.95;100.00
68986;BME280;56035;37.534;-122.308;2022-11-11T07:54:16;102067.66;;;3.94;100.00
68986;BME280;56035;37.534;-122.308;2022-11-11T07:56:42;102072.41;;;3.92;100.00
68986;BME280;56035;37.534;-122.308;2022-11-11T07:59:08;102067.47;;;3.87;100.00
68986;BME280;56035;37.534;-122.308;2022-11-11T08:01:35;102072.22;;;3.85;100.00
68986;BME280;56035;37.534;-122.308;2022-11-11T08:04:01;102067.78;;;3.84;100.00
68986;BME280;56035;37.534;-122.308;2022-11-11T08:06:27;102070.69;;;3.83;100.00
68986;BME280;56035;37.534;-122.308;2022-11-11T08:08:53;102075.44;;;3.81;100.00
68986;BME280;56035;37.534;-122.308;2022-11-11T08:11:19;102070.16;;;3.79;100.00
68986;BME280;56035;37.534;-122.308;2022-11-11T08:14:05;102062.16;;;3.78;100.00
68986;BME280;56035;37.534;-122.308;2022-11-11T08:16:31;102060.44;;;3.77;100.00
68986;BME280;56035;37.534;-122.308;2022-11-11T08:18:57;102068.44;;;3.78;100.00
68986;BME280;56035;37.534;-122.308;2022-11-11T08:21:24;102064.34;;;3.74;100.00
68986;BME280;56035;37.534;-122.308;2022-11-11T08:23:50;102070.31;;;3.78;100.00
68986;BME280;56035;37.534;-122.308;2022-11-11T08:26:17;102067.59;;;3.78;100.00
68986;BME280;56035;37.534;-122.308;2022-11-11T08:28:44;102075.97;;;3.76;100.00
68986;BME280;56035;37.534;-122.308;2022-11-11T08:31:10;102069.94;;;3.72;100.00
68986;BME280;56035;37.534;-122.308;2022-11-11T08:33:36;102063.66;;;3.72;100.00
68986;BME280;56035;37.534;-122.308;2022-11-11T08:36:03;102064.16;;;3.67;100.00
68986;BME280;56035;37.534;-122.308;2022-11-11T08:38:30;102056.31;;;3.64;100.00
68986;BME280;56035;37.534;-122.308;2022-11-11T08:41:01;102055.59;;;3.62;100.00
68986;BME280;56035;37.534;-122.308;2022-11-11T08:43:27;102063.25;;;3.59;100.00
68986;BME280;56035;37.534;-122.308;2022-11-11T08:46:01;102054.41;;;3.57;100.00
68986;BME280;56035;37.534;-122.308;2022-11-11T08:48:30;102051.69;;;3.57;100.00
68986;BME280;56035;37.534;-122.308;2022-11-11T08:50:56;102054.56;;;3.55;100.00
68986;BME280;56035;37.534;-122.308;2022-11-11T08:53:23;102052.88;;;3.54;100.00
68986;BME280;56035;37.534;-122.308;2022-11-11T08:55:49;102059.31;;;3.53;100.00
68986;BME280;56035;37.534;-122.308;2022-11-11T08:58:16;102058.47;;;3.52;100.00
68986;BME280;56035;37.534;-122.308;2022-11-11T09:00:42;102055.06;;;3.50;100.00
68986;BME280;56035;37.534;-122.308;2022-11-11T09:03:11;102057.09;;;3.48;100.00
68986;BME280;56035;37.534;-122.308;2022-11-11T09:05:39;102045.34;;;3.48;100.00
68986;BME280;56035;37.534;-122.308;2022-11-11T09:08:06;102040.75;;;3.48;100.00
68986;BME280;56035;37.534;-122.308;2022-11-11T09:10:34;102053.66;;;3.46;100.00
68986;BME280;56035;37.534;-122.308;2022-11-11T09:13:01;102051.50;;;3.50;100.00
68986;BME280;56035;37.534;-122.308;2022-11-11T09:15:27;102050.47;;;3.51;100.00
68986;BME280;56035;37.534;-122.308;2022-11-11T09:17:53;102046.19;;;3.48;100.00
68986;BME280;56035;37.534;-122.308;2022-11-11T09:20:20;102040.06;;;3.46;100.00
68986;BME280;56035;37.534;-122.308;2022-11-11T09:22:48;102040.06;;;3.46;100.00
68986;BME280;56035;37.534;-122.308;2022-11-11T09:25:15;102046.53;;;3.45;100.00
68986;BME280;56035;37.534;-122.308;2022-11-11T09:27:42;102042.78;;;3.46;100.00
68986;BME280;56035;37.534;-122.308;2022-11-11T09:30:08;102037.69;;;3.43;100.00
68986;BME280;56035;37.534;-122.308;2022-11-11T09:32:35;102046.31;;;3.39;100.00
68986;BME280;56035;37.534;-122.308;2022-11-11T09:35:02;102040.34;;;3.35;100.00
68986;BME280;56035;37.534;-122.308;2022-11-11T09:37:29;102046.50;;;3.37;100.00
68986;BME280;56035;37.534;-122.308;2022-11-11T09:39:55;102033.22;;;3.34;100.00
68986;BME280;56035;37.534;-122.308;2022-11-11T09:42:39;102036.25;;;3.31;100.00
68986;BME280;56035;37.534;-122.308;2022-11-11T09:45:19;102034.53;;;3.30;100.00
68986;BME280;56035;37.534;-122.308;2022-11-11T09:48:12;102036.25;;;3.31;100.00
68986;BME280;56035;37.534;-122.308;2022-11-11T09:50:47;102039.13;;;3.29;100.00
68986;BME280;56035;37.534;-122.308;2022-11-11T09:53:26;102039.13;;;3.29;100.00
68986;BME280;56035;37.534;-122.308;2022-11-11T09:56:13;102035.72;;;3.27;100.00
68986;BME280;56035;37.534;-122.308;2022-11-11T09:58:47;102043.06;;;3.27;100.00
68986;BME280;56035;37.534;-122.308;2022-11-11T10:01:44;102039.63;;;3.25;100.00
68986;BME280;56035;37.534;-122.308;2022-11-11T10:04:44;102038.09;;;3.22;100.00
68986;BME280;56035;37.534;-122.308;2022-11-11T10:07:24;102044.69;;;3.20;100.00
68986;BME280;56035;37.534;-122.308;2022-11-11T10:10:19;102034.84;;;3.19;100.00
68986;BME280;56035;37.534;-122.308;2022-11-11T10:12:51;102028.69;;;3.17;100.00
68986;BME280;56035;37.534;-122.308;2022-11-11T10:15:18;102029.72;;;3.16;100.00
68986;BME280;56035;37.534;-122.308;2022-11-11T10:18:16;102034.13;;;3.17;100.00
68986;BME280;56035;37.534;-122.308;2022-11-11T10:20:50;102020.84;;;3.14;100.00
68986;BME280;56035;37.534;-122.308;2022-11-11T10:23:25;102021.88;;;3.13;100.00
68986;BME280;56035;37.534;-122.308;2022-11-11T10:25:55;102023.75;;;3.12;100.00
68986;BME280;56035;37.534;-122.308;2022-11-11T10:28:28;102022.19;;;3.10;100.00
68986;BME280;56035;37.534;-122.308;2022-11-11T10:30:57;102018.47;;;3.11;100.00
68986;BME280;56035;37.534;-122.308;2022-11-11T10:33:34;102024.06;;;3.09;100.00
68986;BME280;56035;37.534;-122.308;2022-11-11T10:36:04;102023.03;;;3.10;100.00
68986;BME280;56035;37.534;-122.308;2022-11-11T10:38:49;102019.97;;;3.05;100.00
68986;BME280;56035;37.534;-122.308;2022-11-11T10:41:46;102013.66;;;3.04;100.00
68986;BME280;56035;37.534;-122.308;2022-11-11T10:44:25;102019.44;;;3.01;100.00
68986;BME280;56035;37.534;-122.308;2022-11-11T10:47:19;102014.31;;;2.98;100.00
68986;BME280;56035;37.534;-122.308;2022-11-11T10:52:37;102017.03;;;2.98;100.00
68986;BME280;56035;37.534;-122.308;2022-11-11T10:55:11;102004.97;;;3.01;100.00
68986;BME280;56035;37.534;-122.308;2022-11-11T11:00:11;101997.59;;;2.93;100.00
68986;BME280;56035;37.534;-122.308;2022-11-11T11:07:59;102007.81;;;2.91;100.00
68986;BME280;56035;37.534;-122.308;2022-11-11T11:10:46;102001.81;;;2.88;100.00
68986;BME280;56035;37.534;-122.308;2022-11-11T11:13:29;101997.56;;;2.85;100.00
68986;BME280;56035;37.534;-122.308;2022-11-11T11:16:02;101997.25;;;2.88;100.00
68986;BME280;56035;37.534;-122.308;2022-11-11T11:18:30;101997.38;;;2.87;100.00
68986;BME280;56035;37.534;-122.308;2022-11-11T11:21:01;102004.88;;;2.85;100.00
68986;BME280;56035;37.534;-122.308;2022-11-11T11:26:05;101996.00;;;2.83;100.00
68986;BME280;56035;37.534;-122.308;2022-11-11T11:28:32;101989.19;;;2.78;100.00
68986;BME280;56035;37.534;-122.308;2022-11-11T11:31:02;101997.34;;;2.78;100.00
68986;BME280;56035;37.534;-122.308;2022-11-11T11:33:49;101994.78;;;2.77;100.00
68986;BME280;56035;37.534;-122.308;2022-11-11T11:36:17;101997.50;;;2.77;100.00
68986;BME280;56035;37.534;-122.308;2022-11-11T11:38:45;101994.09;;;2.75;100.00
68986;BME280;56035;37.534;-122.308;2022-11-11T11:41:12;101991.38;;;2.75;100.00
68986;BME280;56035;37.534;-122.308;2022-11-11T11:43:39;101995.09;;;2.74;100.00
68986;BME280;56035;37.534;-122.308;2022-11-11T11:46:23;101998.97;;;2.71;100.00
68986;BME280;56035;37.534;-122.308;2022-11-11T11:54:40;101995.28;;;2.72;100.00
68986;BME280;56035;37.534;-122.308;2022-11-11T11:57:46;101988.97;;;2.72;100.00
68986;BME280;56035;37.534;-122.308;2022-11-11T12:00:24;101981.13;;;2.69;100.00
68986;BME280;56035;37.534;-122.308;2022-11-11T12:02:57;101991.84;;;2.70;100.00
68986;BME280;56035;37.534;-122.308;2022-11-11T12:21:20;101986.19;;;2.64;100.00
68986;BME280;56035;37.534;-122.308;2022-11-11T12:23:57;101991.63;;;2.64;100.00
68986;BME280;56035;37.534;-122.308;2022-11-11T12:26:35;101987.88;;;2.65;100.00
68986;BME280;56035;37.534;-122.308;2022-11-11T12:29:21;101982.78;;;2.62;100.00
68986;BME280;56035;37.534;-122.308;2022-11-11T12:34:40;101984.97;;;2.58;100.00
68986;BME280;56035;37.534;-122.308;2022-11-11T12:51:07;101995.41;;;2.45;100.00
68986;BME280;56035;37.534;-122.308;2022-11-11T12:53:51;101995.59;;;2.43;100.00
68986;BME280;56035;37.534;-122.308;2022-11-11T12:56:35;101994.19;;;2.39;100.00
68986;BME280;56035;37.534;-122.308;2022-11-11T12:59:14;101992.47;;;2.38;100.00
68986;BME280;56035;37.534;-122.308;2022-11-11T13:04:48;101991.94;;;2.34;100.00
68986;BME280;56035;37.534;-122.308;2022-11-11T13:07:50;101993.09;;;2.32;100.00
68986;BME280;56035;37.534;-122.308;2022-11-11T13:16:08;101985.81;;;2.32;100.00
68986;BME280;56035;37.534;-122.308;2022-11-11T13:18:42;101982.38;;;2.30;100.00
68986;BME280;56035;37.534;-122.308;2022-11-11T13:21:14;101988.00;;;2.29;100.00
68986;BME280;56035;37.534;-122.308;2022-11-11T13:23:42;101982.88;;;2.26;100.00
68986;BME280;56035;37.534;-122.308;2022-11-11T13:26:34;101994.06;;;2.23;100.00
68986;BME280;56035;37.534;-122.308;2022-11-11T13:31:57;101985.69;;;2.16;100.00
68986;BME280;56035;37.534;-122.308;2022-11-11T13:34:26;101980.69;;;2.11;100.00
68986;BME280;56035;37.534;-122.308;2022-11-11T13:36:54;101973.41;;;2.12;100.00
68986;BME280;56035;37.534;-122.308;2022-11-11T13:39:48;101970.69;;;2.12;100.00
68986;BME280;56035;37.534;-122.308;2022-11-11T13:42:24;101975.13;;;2.13;100.00
68986;BME280;56035;37.534;-122.308;2022-11-11T13:44:57;101980.56;;;2.13;100.00
68986;BME280;56035;37.534;-122.308;2022-11-11T13:47:37;101971.56;;;2.13;100.00
68986;BME280;56035;37.534;-122.308;2022-11-11T13:50:05;101980.56;;;2.13;100.00